Time;durP1;ratioP1;P1;durP2;ratioP2;P2;SDS_P1;SDS_P2;PMS_P1;PMS_P2;Temp;Humidity;BMP_temperature;BMP_pressure;BME280_temperature;BME280_humidity;BME280_pressure;Samples;Min_cycle;Max_cycle;Signal;HPM_P1;HPM_P2
2023/03/19 00:01:52;;;;;;;4.15;1.40;;;;;;;;;;5091473;28;20048;-60
2023/03/19 00:04:18;;;;;;;3.85;1.35;;;;;;;;;;5091654;28;20482;-62
2023/03/19 00:06:44;;;;;;;2.10;0.90;;;;;;;;;;5091375;28;20054;-63
2023/03/19 00:09:11;;;;;;;2.67;1.27;;;;;;;;;;5091790;28;20034;-62
2023/03/19 00:11:37;;;;;;;2.08;1.10;;;;;;;;;;5090644;28;20024;-61
2023/03/19 00:14:03;;;;;;;1.55;0.85;;;;;;;;;;5091448;28;20048;-61
2023/03/19 00:16:29;;;;;;;2.85;1.20;;;;;;;;;;5091232;28;20020;-59
2023/03/19 00:18:56;;;;;;;2.85;0.90;;;;;;;;;;5091699;28;20480;-60
2023/03/19 00:21:22;;;;;;;3.15;1.42;;;;;;;;;;5091370;28;20020;-60
2023/03/19 00:23:48;;;;;;;1.92;0.98;;;;;;;;;;5090654;28;20868;-61
2023/03/19 00:26:14;;;;;;;2.50;1.08;;;;;;;;;;5091384;28;20048;-60
2023/03/19 00:28:40;;;;;;;2.45;1.20;;;;;;;;;;5090830;28;20487;-62
2023/03/19 00:31:14;;;;;;;3.63;1.80;;;;;;;;;;5091592;28;20380;-64
2023/03/19 00:33:40;;;;;;;4.28;1.20;;;;;;;;;;5090835;28;20040;-60
2023/03/19 00:36:06;;;;;;;1.92;1.00;;;;;;;;;;5090748;28;20020;-59
2023/03/19 00:38:34;;;;;;;2.38;1.10;;;;;;;;;;5091035;28;20492;-62
2023/03/19 00:41:00;;;;;;;1.95;1.00;;;;;;;;;;5091173;28;20028;-63
2023/03/19 00:43:27;;;;;;;1.67;0.95;;;;;;;;;;5091414;28;20031;-62
2023/03/19 00:45:53;;;;;;;1.88;1.17;;;;;;;;;;5090923;28;20099;-62
2023/03/19 00:48:19;;;;;;;2.75;1.20;;;;;;;;;;5091035;28;20066;-61
2023/03/19 00:50:45;;;;;;;1.98;1.05;;;;;;;;;;5090891;28;20023;-63
2023/03/19 00:53:11;;;;;;;2.30;0.93;;;;;;;;;;5090498;28;20480;-60
2023/03/19 00:55:37;;;;;;;1.63;0.70;;;;;;;;;;5090683;28;20028;-60
2023/03/19 00:58:05;;;;;;;2.25;1.00;;;;;;;;;;5091290;28;20024;-63
2023/03/19 01:00:31;;;;;;;1.83;1.00;;;;;;;;;;5090652;28;20024;-63
2023/03/19 01:02:58;;;;;;;2.90;1.08;;;;;;;;;;5094271;28;20046;-62
2023/03/19 01:05:24;;;;;;;2.20;0.90;;;;;;;;;;5095256;28;20031;-63
2023/03/19 01:07:50;;;;;;;1.83;1.00;;;;;;;;;;5094782;28;20116;-63
2023/03/19 01:10:20;;;;;;;2.42;1.05;;;;;;;;;;5094291;28;20024;-62
2023/03/19 01:12:47;;;;;;;1.63;0.93;;;;;;;;;;5094411;28;20442;-63
2023/03/19 01:15:13;;;;;;;1.92;0.95;;;;;;;;;;5094807;28;20030;-63
2023/03/19 01:17:39;;;;;;;3.28;0.90;;;;;;;;;;5094492;28;20059;-63
2023/03/19 01:20:11;;;;;;;1.83;1.10;;;;;;;;;;5094734;28;20028;-61
2023/03/19 01:22:37;;;;;;;1.75;0.95;;;;;;;;;;5094266;28;20498;-63
2023/03/19 01:25:04;;;;;;;2.05;1.20;;;;;;;;;;5094172;28;20028;-62
2023/03/19 01:27:30;;;;;;;1.60;0.90;;;;;;;;;;5093124;28;20028;-59
2023/03/19 01:29:56;;;;;;;2.03;1.38;;;;;;;;;;5094782;28;20024;-63
2023/03/19 01:32:22;;;;;;;4.53;1.15;;;;;;;;;;5094512;28;20107;-61
2023/03/19 01:34:48;;;;;;;1.90;1.38;;;;;;;;;;5094162;28;20036;-63
2023/03/19 01:37:14;;;;;;;1.52;1.10;;;;;;;;;;5094442;28;20024;-63
2023/03/19 01:39:40;;;;;;;2.67;1.20;;;;;;;;;;5093455;28;20031;-63
2023/03/19 01:42:07;;;;;;;1.65;1.15;;;;;;;;;;5073995;28;20029;-61
2023/03/19 01:44:37;;;;;;;1.58;1.02;;;;;;;;;;5074703;28;20033;-60
2023/03/19 01:47:10;;;;;;;1.67;0.88;;;;;;;;;;5074127;28;20020;-63
2023/03/19 01:49:39;;;;;;;1.77;1.02;;;;;;;;;;5073368;28;20029;-62
2023/03/19 01:52:06;;;;;;;2.00;0.95;;;;;;;;;;5073908;28;20040;-62
2023/03/19 01:54:33;;;;;;;2.80;1.33;;;;;;;;;;5073459;28;20105;-62
2023/03/19 01:57:02;;;;;;;2.15;0.90;;;;;;;;;;5073753;28;20017;-60
2023/03/19 01:59:54;;;;;;;1.65;0.98;;;;;;;;;;5076243;28;20108;-60
2023/03/19 02:02:20;;;;;;;2.63;1.42;;;;;;;;;;5089925;28;20043;-59
2023/03/19 02:04:46;;;;;;;1.92;1.00;;;;;;;;;;5093590;28;20020;-59
2023/03/19 02:07:13;;;;;;;1.83;0.93;;;;;;;;;;5093789;28;20024;-60
2023/03/19 02:09:40;;;;;;;1.98;1.27;;;;;;;;;;5093540;28;20091;-60
2023/03/19 02:12:06;;;;;;;2.42;1.20;;;;;;;;;;5093650;28;20056;-61
2023/03/19 02:14:32;;;;;;;2.45;1.00;;;;;;;;;;5092370;28;20036;-60
2023/03/19 02:16:58;;;;;;;1.88;0.85;;;;;;;;;;5093740;28;20085;-59
2023/03/19 02:19:51;;;;;;;1.92;1.10;;;;;;;;;;5093436;28;20044;-59
2023/03/19 02:22:19;;;;;;;2.03;1.10;;;;;;;;;;5050048;28;20036;-59
2023/03/19 02:24:51;;;;;;;1.98;1.20;;;;;;;;;;5073120;28;20099;-60
2023/03/19 02:27:17;;;;;;;2.13;1.02;;;;;;;;;;5073026;28;20388;-60
2023/03/19 02:29:43;;;;;;;1.92;1.08;;;;;;;;;;5072964;28;20028;-60
2023/03/19 02:32:10;;;;;;;2.17;1.00;;;;;;;;;;5073191;28;20075;-62
2023/03/19 02:34:37;;;;;;;2.45;1.10;;;;;;;;;;5074846;28;20040;-61
2023/03/19 02:37:06;;;;;;;2.80;1.10;;;;;;;;;;5093333;28;20077;-60
2023/03/19 02:39:36;;;;;;;1.58;1.17;;;;;;;;;;5092600;28;20028;-60
2023/03/19 02:42:03;;;;;;;1.95;1.13;;;;;;;;;;5093160;28;20027;-61
2023/03/19 02:44:29;;;;;;;1.92;1.05;;;;;;;;;;5092816;28;20423;-61
2023/03/19 02:46:55;;;;;;;3.60;1.10;;;;;;;;;;5093360;28;20027;-60
2023/03/19 02:49:21;;;;;;;1.75;0.98;;;;;;;;;;5092835;28;20020;-60
2023/03/19 02:51:47;;;;;;;2.33;1.02;;;;;;;;;;5092736;28;20039;-62
2023/03/19 02:54:14;;;;;;;1.85;1.02;;;;;;;;;;5092596;28;20044;-62
2023/03/19 02:56:40;;;;;;;2.13;1.00;;;;;;;;;;5092582;28;20038;-61
2023/03/19 02:59:06;;;;;;;1.90;1.20;;;;;;;;;;5092929;28;20024;-61
2023/03/19 03:01:32;;;;;;;2.65;1.33;;;;;;;;;;5092545;28;20476;-60
2023/03/19 03:03:58;;;;;;;2.60;1.55;;;;;;;;;;5092239;28;20503;-61
2023/03/19 03:06:24;;;;;;;1.90;0.90;;;;;;;;;;5092961;28;20046;-60
2023/03/19 03:08:50;;;;;;;1.88;1.10;;;;;;;;;;5092397;28;20553;-60
2023/03/19 03:11:17;;;;;;;2.38;1.20;;;;;;;;;;5092476;28;20040;-62
2023/03/19 03:13:42;;;;;;;1.98;0.90;;;;;;;;;;5092259;28;20028;-62
2023/03/19 03:16:08;;;;;;;1.85;1.10;;;;;;;;;;5092482;28;20107;-61
2023/03/19 03:18:35;;;;;;;2.33;0.90;;;;;;;;;;5092073;28;20115;-61
2023/03/19 03:21:02;;;;;;;1.88;0.90;;;;;;;;;;5092328;28;20020;-60
2023/03/19 03:23:28;;;;;;;2.00;1.13;;;;;;;;;;5092134;28;20020;-60
2023/03/19 03:25:54;;;;;;;4.72;1.30;;;;;;;;;;5092466;28;20028;-63
2023/03/19 03:28:20;;;;;;;2.35;1.15;;;;;;;;;;5092373;28;20028;-63
2023/03/19 03:30:47;;;;;;;1.73;0.90;;;;;;;;;;5091906;28;20373;-62
2023/03/19 03:33:14;;;;;;;2.47;1.15;;;;;;;;;;5092153;28;20043;-62
2023/03/19 03:35:40;;;;;;;1.80;1.20;;;;;;;;;;5091958;28;20032;-63
2023/03/19 03:38:06;;;;;;;2.83;1.58;;;;;;;;;;5091905;28;20392;-63
2023/03/19 03:40:33;;;;;;;1.65;0.93;;;;;;;;;;5091871;28;20024;-62
2023/03/19 03:42:59;;;;;;;2.33;1.27;;;;;;;;;;5092046;28;20407;-63
2023/03/19 03:45:26;;;;;;;2.80;0.90;;;;;;;;;;5092177;28;20407;-63
2023/03/19 03:47:52;;;;;;;3.38;1.15;;;;;;;;;;5091670;28;20114;-60
2023/03/19 03:50:18;;;;;;;2.58;1.30;;;;;;;;;;5091532;28;20043;-63
2023/03/19 03:52:44;;;;;;;2.45;1.27;;;;;;;;;;5091325;28;20518;-63
2023/03/19 03:55:10;;;;;;;2.03;1.20;;;;;;;;;;5091854;28;20078;-61
2023/03/19 03:57:36;;;;;;;2.65;1.10;;;;;;;;;;5091564;28;20028;-60
2023/03/19 04:00:02;;;;;;;2.53;1.10;;;;;;;;;;5091603;28;20066;-60
2023/03/19 04:02:29;;;;;;;2.92;1.42;;;;;;;;;;5091190;28;20107;-60
2023/03/19 04:04:55;;;;;;;2.47;1.42;;;;;;;;;;5091565;28;20075;-60
2023/03/19 04:07:21;;;;;;;2.92;1.30;;;;;;;;;;5091629;28;20127;-59
2023/03/19 04:09:49;;;;;;;2.33;1.45;;;;;;;;;;5091329;28;20447;-60
2023/03/19 04:12:16;;;;;;;2.03;1.20;;;;;;;;;;5091384;28;20110;-59
2023/03/19 04:14:42;;;;;;;2.10;1.10;;;;;;;;;;5090930;28;20040;-60
2023/03/19 04:17:08;;;;;;;2.30;1.00;;;;;;;;;;5091498;28;20146;-60
2023/03/19 04:19:34;;;;;;;4.03;1.23;;;;;;;;;;5090858;28;20396;-60
2023/03/19 04:22:02;;;;;;;2.47;1.00;;;;;;;;;;5091215;28;20024;-61
2023/03/19 04:24:28;;;;;;;2.20;1.38;;;;;;;;;;5090328;28;20081;-60
2023/03/19 04:26:54;;;;;;;2.95;1.45;;;;;;;;;;5091620;28;20442;-60
2023/03/19 04:29:21;;;;;;;2.50;1.27;;;;;;;;;;5091813;28;20545;-60
2023/03/19 04:31:47;;;;;;;3.00;1.13;;;;;;;;;;5090895;28;20407;-60
2023/03/19 04:34:13;;;;;;;1.80;0.93;;;;;;;;;;5090878;28;20110;-62
2023/03/19 04:36:39;;;;;;;2.25;1.15;;;;;;;;;;5090482;28;20032;-61
2023/03/19 04:39:05;;;;;;;2.92;1.00;;;;;;;;;;5091164;28;20024;-61
2023/03/19 04:41:31;;;;;;;2.13;1.40;;;;;;;;;;5089726;28;20081;-60
2023/03/19 04:43:57;;;;;;;3.00;1.63;;;;;;;;;;5091303;28;20111;-59
2023/03/19 04:46:23;;;;;;;2.80;1.23;;;;;;;;;;5090835;28;20108;-59
2023/03/19 04:48:49;;;;;;;1.92;1.00;;;;;;;;;;5090926;28;20025;-61
2023/03/19 04:51:15;;;;;;;1.98;1.20;;;;;;;;;;5091019;28;20028;-61
2023/03/19 04:53:41;;;;;;;2.55;1.13;;;;;;;;;;5090825;28;20491;-60
2023/03/19 04:56:08;;;;;;;1.90;1.10;;;;;;;;;;5090935;28;20514;-61
2023/03/19 04:58:34;;;;;;;2.30;1.10;;;;;;;;;;5090660;28;20035;-60
2023/03/19 05:01:00;;;;;;;3.05;1.10;;;;;;;;;;5090299;28;20404;-60
2023/03/19 05:03:26;;;;;;;2.38;1.08;;;;;;;;;;5091213;28;20028;-59
2023/03/19 05:05:53;;;;;;;3.28;1.65;;;;;;;;;;5090730;28;20035;-62
2023/03/19 05:08:19;;;;;;;1.80;1.17;;;;;;;;;;5090789;28;20021;-64
2023/03/19 05:10:46;;;;;;;1.55;1.02;;;;;;;;;;5090346;28;20039;-61
2023/03/19 05:13:12;;;;;;;2.67;1.45;;;;;;;;;;5090476;28;20043;-62
2023/03/19 05:15:38;;;;;;;2.25;1.20;;;;;;;;;;5090244;28;20060;-64
2023/03/19 05:18:04;;;;;;;2.92;1.20;;;;;;;;;;5090896;28;20020;-62
2023/03/19 05:20:30;;;;;;;2.15;1.15;;;;;;;;;;5090657;28;20032;-62
2023/03/19 05:22:56;;;;;;;2.13;1.05;;;;;;;;;;5090949;28;20396;-61
2023/03/19 05:25:22;;;;;;;2.10;1.20;;;;;;;;;;5090674;28;20083;-63
2023/03/19 05:27:48;;;;;;;2.05;0.98;;;;;;;;;;5090528;28;20168;-63
2023/03/19 05:30:14;;;;;;;3.08;1.17;;;;;;;;;;5090323;28;20481;-63
2023/03/19 05:32:41;;;;;;;3.13;1.13;;;;;;;;;;5090514;28;20067;-61
2023/03/19 05:35:07;;;;;;;2.40;1.00;;;;;;;;;;5090781;28;20040;-60
2023/03/19 05:37:33;;;;;;;2.42;1.20;;;;;;;;;;5090408;28;20020;-60
2023/03/19 05:39:59;;;;;;;3.08;1.20;;;;;;;;;;5090332;28;20024;-60
2023/03/19 05:42:25;;;;;;;2.58;1.20;;;;;;;;;;5090908;28;20031;-61
2023/03/19 05:44:51;;;;;;;2.22;1.45;;;;;;;;;;5090322;28;20024;-61
2023/03/19 05:47:17;;;;;;;3.08;1.50;;;;;;;;;;5090621;28;20031;-60
2023/03/19 05:49:43;;;;;;;2.90;1.50;;;;;;;;;;5092858;28;20048;-61
2023/03/19 05:52:09;;;;;;;5.68;1.52;;;;;;;;;;5094123;28;20060;-60
2023/03/19 05:54:35;;;;;;;2.78;1.35;;;;;;;;;;5093445;28;20032;-60
2023/03/19 05:57:01;;;;;;;4.28;1.48;;;;;;;;;;5094224;28;20030;-62
2023/03/19 05:59:27;;;;;;;2.40;1.45;;;;;;;;;;5094373;28;20062;-63
2023/03/19 06:01:53;;;;;;;3.25;1.25;;;;;;;;;;5093932;28;20027;-63
2023/03/19 06:04:19;;;;;;;2.78;1.30;;;;;;;;;;5093893;28;20129;-60
2023/03/19 06:06:46;;;;;;;2.80;1.10;;;;;;;;;;5093468;28;20554;-61
2023/03/19 06:09:12;;;;;;;6.13;1.27;;;;;;;;;;5093759;28;20030;-62
2023/03/19 06:11:39;;;;;;;2.22;1.27;;;;;;;;;;5093403;28;20112;-62
2023/03/19 06:14:05;;;;;;;3.40;1.40;;;;;;;;;;5093256;28;20089;-61
2023/03/19 06:16:31;;;;;;;3.97;1.30;;;;;;;;;;5093559;28;20016;-63
2023/03/19 06:18:58;;;;;;;2.95;1.20;;;;;;;;;;5093976;28;20103;-62
2023/03/19 06:21:28;;;;;;;2.63;1.10;;;;;;;;;;5093395;28;20031;-64
2023/03/19 06:23:55;;;;;;;2.83;1.23;;;;;;;;;;5093572;28;20039;-63
2023/03/19 06:26:21;;;;;;;3.35;1.33;;;;;;;;;;5093461;28;20024;-64
2023/03/19 06:28:47;;;;;;;2.58;1.15;;;;;;;;;;5093257;28;20438;-61
2023/03/19 06:31:13;;;;;;;3.15;1.20;;;;;;;;;;5093375;28;20131;-59
2023/03/19 06:33:40;;;;;;;3.22;1.60;;;;;;;;;;5092710;28;20063;-61
2023/03/19 06:36:06;;;;;;;2.28;1.17;;;;;;;;;;5093289;28;20392;-63
2023/03/19 06:38:32;;;;;;;3.72;1.95;;;;;;;;;;5092945;28;20036;-60
2023/03/19 06:40:58;;;;;;;2.90;1.20;;;;;;;;;;5093231;28;20122;-60
2023/03/19 06:43:24;;;;;;;2.58;1.10;;;;;;;;;;5093420;28;20052;-61
2023/03/19 06:45:50;;;;;;;5.15;1.70;;;;;;;;;;5092773;28;20035;-60
2023/03/19 06:48:17;;;;;;;2.42;1.30;;;;;;;;;;5093330;28;20042;-59
2023/03/19 06:50:45;;;;;;;2.88;1.40;;;;;;;;;;5092630;28;20020;-61
2023/03/19 06:53:11;;;;;;;3.45;1.55;;;;;;;;;;5092572;28;20034;-62
2023/03/19 06:55:37;;;;;;;1.95;1.13;;;;;;;;;;5092646;28;20032;-63
2023/03/19 06:58:03;;;;;;;3.67;1.45;;;;;;;;;;5092984;28;20459;-60
2023/03/19 07:00:29;;;;;;;2.95;1.20;;;;;;;;;;5092127;28;20024;-60
2023/03/19 07:02:55;;;;;;;4.75;1.45;;;;;;;;;;5093088;28;20097;-61
2023/03/19 07:05:21;;;;;;;3.05;1.42;;;;;;;;;;5092724;28;20024;-59
2023/03/19 07:07:47;;;;;;;3.35;1.58;;;;;;;;;;5093565;28;20051;-60
2023/03/19 07:10:13;;;;;;;2.25;1.27;;;;;;;;;;5110132;28;20035;-62
2023/03/19 07:12:39;;;;;;;2.95;1.40;;;;;;;;;;5112877;28;20024;-62
2023/03/19 07:15:06;;;;;;;3.15;1.35;;;;;;;;;;5112897;28;20032;-62
2023/03/19 07:17:31;;;;;;;3.38;1.42;;;;;;;;;;5112805;28;20020;-61
2023/03/19 07:19:57;;;;;;;2.55;1.52;;;;;;;;;;5113154;28;20034;-60
2023/03/19 07:22:24;;;;;;;2.28;1.27;;;;;;;;;;5112907;28;20031;-60
2023/03/19 07:24:50;;;;;;;2.90;1.40;;;;;;;;;;5112644;28;20225;-60
2023/03/19 07:27:16;;;;;;;3.90;1.63;;;;;;;;;;5112867;27;20054;-60
2023/03/19 07:29:42;;;;;;;2.78;1.38;;;;;;;;;;5112777;28;20023;-61
2023/03/19 07:32:09;;;;;;;4.32;1.50;;;;;;;;;;5095047;28;20075;-59
2023/03/19 07:34:36;;;;;;;3.05;1.35;;;;;;;;;;5090622;28;20043;-60
2023/03/19 07:37:02;;;;;;;2.75;1.73;;;;;;;;;;5092210;28;20081;-63
2023/03/19 07:39:28;;;;;;;3.70;1.27;;;;;;;;;;5092530;28;20032;-61
2023/03/19 07:41:54;;;;;;;3.22;1.45;;;;;;;;;;5092448;28;20026;-61
2023/03/19 07:44:20;;;;;;;3.83;1.60;;;;;;;;;;5091950;28;20040;-61
2023/03/19 07:46:46;;;;;;;3.58;1.40;;;;;;;;;;5101751;28;20110;-60
2023/03/19 07:49:12;;;;;;;2.95;1.73;;;;;;;;;;5112406;28;20059;-60
2023/03/19 07:51:38;;;;;;;2.63;1.42;;;;;;;;;;5112158;28;20027;-59
2023/03/19 07:54:04;;;;;;;3.15;1.60;;;;;;;;;;5112287;28;20036;-60
2023/03/19 07:56:30;;;;;;;5.00;1.73;;;;;;;;;;5111703;28;20506;-62
2023/03/19 07:58:56;;;;;;;4.00;1.80;;;;;;;;;;5112374;28;20032;-61
2023/03/19 08:01:22;;;;;;;3.17;1.65;;;;;;;;;;5111020;28;20019;-61
2023/03/19 08:03:48;;;;;;;3.13;1.40;;;;;;;;;;5110799;28;20391;-63
2023/03/19 08:06:14;;;;;;;4.20;1.70;;;;;;;;;;5111622;28;20115;-59
2023/03/19 08:08:40;;;;;;;4.78;1.98;;;;;;;;;;5090369;28;20419;-59
2023/03/19 08:11:06;;;;;;;5.03;1.38;;;;;;;;;;5087501;28;20105;-59
2023/03/19 08:13:32;;;;;;;3.10;1.33;;;;;;;;;;5090383;28;20040;-60
2023/03/19 08:15:58;;;;;;;4.35;1.75;;;;;;;;;;5091448;28;20016;-59
2023/03/19 08:18:25;;;;;;;5.63;1.70;;;;;;;;;;5111557;28;20035;-60
2023/03/19 08:20:51;;;;;;;4.13;1.67;;;;;;;;;;5111571;28;20020;-59
2023/03/19 08:23:17;;;;;;;4.78;2.50;;;;;;;;;;5111795;28;20016;-59
2023/03/19 08:25:43;;;;;;;6.72;1.98;;;;;;;;;;5096981;28;20428;-60
2023/03/19 08:28:09;;;;;;;4.45;1.65;;;;;;;;;;5090533;28;20016;-60
2023/03/19 08:30:36;;;;;;;5.75;2.10;;;;;;;;;;5090968;28;20082;-60
2023/03/19 08:33:02;;;;;;;4.55;2.15;;;;;;;;;;5091188;28;20024;-59
2023/03/19 08:35:28;;;;;;;7.45;2.25;;;;;;;;;;5090758;28;20399;-60
2023/03/19 08:37:54;;;;;;;7.57;2.42;;;;;;;;;;5090813;28;20021;-59
2023/03/19 08:40:21;;;;;;;3.45;1.95;;;;;;;;;;5102658;28;20047;-60
2023/03/19 08:42:47;;;;;;;4.72;2.00;;;;;;;;;;5111347;28;20024;-60
2023/03/19 08:45:14;;;;;;;4.88;2.17;;;;;;;;;;5109638;28;20035;-60
2023/03/19 08:47:40;;;;;;;6.30;1.92;;;;;;;;;;5111243;28;20020;-60
2023/03/19 08:50:07;;;;;;;5.88;2.08;;;;;;;;;;5099610;28;20028;-60
2023/03/19 08:52:33;;;;;;;7.00;2.63;;;;;;;;;;5089687;28;20495;-59
2023/03/19 08:54:59;;;;;;;9.25;2.17;;;;;;;;;;5090956;28;20039;-59
2023/03/19 08:57:25;;;;;;;9.13;2.30;;;;;;;;;;5091417;28;20020;-59
2023/03/19 08:59:54;;;;;;;5.38;2.00;;;;;;;;;;5090849;28;20097;-60
2023/03/19 09:02:20;;;;;;;4.30;2.00;;;;;;;;;;5091265;28;20023;-60
2023/03/19 09:04:46;;;;;;;7.47;1.95;;;;;;;;;;5089500;28;20337;-59
2023/03/19 09:07:14;;;;;;;4.63;2.20;;;;;;;;;;5090940;28;20036;-60
2023/03/19 09:09:40;;;;;;;7.40;2.35;;;;;;;;;;5090603;28;20515;-60
2023/03/19 09:12:07;;;;;;;7.93;2.38;;;;;;;;;;5089789;28;20039;-60
2023/03/19 09:14:34;;;;;;;6.13;2.20;;;;;;;;;;5096917;28;20046;-60
2023/03/19 09:17:00;;;;;;;9.15;2.22;;;;;;;;;;5101375;27;20031;-60
2023/03/19 09:19:26;;;;;;;9.00;2.63;;;;;;;;;;5105177;28;20533;-60
2023/03/19 09:21:52;;;;;;;6.53;2.22;;;;;;;;;;5091054;28;20020;-60
2023/03/19 09:24:18;;;;;;;4.65;2.33;;;;;;;;;;5106642;28;20035;-60
2023/03/19 09:26:45;;;;;;;6.57;2.55;;;;;;;;;;5094237;28;20074;-60
2023/03/19 09:29:11;;;;;;;7.80;2.88;;;;;;;;;;5109216;28;20028;-60
2023/03/19 09:31:37;;;;;;;9.25;2.20;;;;;;;;;;5107782;28;20024;-59
2023/03/19 09:34:03;;;;;;;10.60;3.30;;;;;;;;;;5095609;28;20044;-60
2023/03/19 09:36:29;;;;;;;6.80;3.08;;;;;;;;;;5092247;28;20020;-60
2023/03/19 09:38:56;;;;;;;8.88;3.95;;;;;;;;;;5090870;28;20146;-60
2023/03/19 09:41:31;;;;;;;13.52;5.70;;;;;;;;;;5092293;28;20024;-60
2023/03/19 09:43:57;;;;;;;15.90;5.88;;;;;;;;;;5093715;28;20046;-60
2023/03/19 09:46:45;;;;;;;14.32;5.15;;;;;;;;;;5096284;28;20041;-59
2023/03/19 09:49:11;;;;;;;14.13;5.57;;;;;;;;;;5112609;28;20042;-59
2023/03/19 09:51:43;;;;;;;16.50;7.00;;;;;;;;;;5104888;28;20028;-59
2023/03/19 09:54:27;;;;;;;11.95;5.57;;;;;;;;;;5112677;28;20040;-60
2023/03/19 09:56:54;;;;;;;10.85;5.97;;;;;;;;;;5114745;28;20047;-59
2023/03/19 09:59:22;;;;;;;13.52;5.68;;;;;;;;;;5098515;28;20070;-59
2023/03/19 10:02:01;;;;;;;14.10;5.93;;;;;;;;;;5093692;28;20466;-59
2023/03/19 10:04:30;;;;;;;13.50;5.85;;;;;;;;;;5094160;28;20369;-59
2023/03/19 10:07:04;;;;;;;19.83;6.13;;;;;;;;;;5094848;28;20153;-59
2023/03/19 10:09:34;;;;;;;17.08;5.40;;;;;;;;;;5113955;28;20107;-59
2023/03/19 10:12:03;;;;;;;12.80;6.45;;;;;;;;;;5111761;28;20059;-60
2023/03/19 10:14:35;;;;;;;14.25;5.88;;;;;;;;;;5111319;28;20044;-60
2023/03/19 10:17:06;;;;;;;14.95;6.38;;;;;;;;;;5106493;28;20038;-60
2023/03/19 10:19:44;;;;;;;11.27;5.80;;;;;;;;;;5092822;28;20020;-59
2023/03/19 10:22:21;;;;;;;12.05;6.50;;;;;;;;;;5093525;28;20024;-59
2023/03/19 10:24:48;;;;;;;15.75;6.15;;;;;;;;;;5093281;28;20032;-60
2023/03/19 10:27:21;;;;;;;14.75;5.85;;;;;;;;;;5092798;28;20020;-60
2023/03/19 10:29:47;;;;;;;10.80;5.30;;;;;;;;;;5093138;28;20111;-60
2023/03/19 10:32:19;;;;;;;10.00;5.55;;;;;;;;;;5093403;28;20503;-59
2023/03/19 10:34:52;;;;;;;10.00;5.30;;;;;;;;;;5092012;28;20048;-59
2023/03/19 10:37:22;;;;;;;12.02;4.88;;;;;;;;;;5093137;28;20024;-59
2023/03/19 10:39:49;;;;;;;11.27;5.22;;;;;;;;;;5092860;28;20039;-60
2023/03/19 10:42:19;;;;;;;8.93;5.00;;;;;;;;;;5092835;28;20020;-59
2023/03/19 10:44:48;;;;;;;16.27;4.88;;;;;;;;;;5092951;28;20032;-60
2023/03/19 10:47:14;;;;;;;9.80;5.18;;;;;;;;;;5093054;28;20076;-60
2023/03/19 10:49:41;;;;;;;12.45;5.20;;;;;;;;;;5092768;28;20020;-60
2023/03/19 10:52:16;;;;;;;9.75;4.75;;;;;;;;;;5092573;28;20476;-60
2023/03/19 10:54:44;;;;;;;12.88;5.30;;;;;;;;;;5092641;28;20043;-60
2023/03/19 10:57:21;;;;;;;8.38;4.32;;;;;;;;;;5092744;28;20043;-60
2023/03/19 10:59:47;;;;;;;8.00;4.70;;;;;;;;;;5091639;28;20112;-60
2023/03/19 11:02:22;;;;;;;8.13;4.32;;;;;;;;;;5092713;28;20476;-60
2023/03/19 11:04:48;;;;;;;8.30;4.33;;;;;;;;;;5093716;28;20023;-59
2023/03/19 11:07:17;;;;;;;12.93;4.80;;;;;;;;;;5112845;27;20369;-60
2023/03/19 11:09:47;;;;;;;8.35;3.97;;;;;;;;;;5092727;28;20027;-60
2023/03/19 11:12:19;;;;;;;10.75;4.50;;;;;;;;;;5093792;28;20042;-60
2023/03/19 11:14:47;;;;;;;7.75;3.88;;;;;;;;;;5112660;27;20525;-60
2023/03/19 11:17:24;;;;;;;7.18;3.80;;;;;;;;;;5098164;28;20483;-59
2023/03/19 11:19:54;;;;;;;6.85;4.38;;;;;;;;;;5092006;28;20040;-60
2023/03/19 11:22:20;;;;;;;9.23;4.30;;;;;;;;;;5092394;28;20032;-60
2023/03/19 11:25:18;;;;;;;9.25;4.00;;;;;;;;;;5092047;28;20384;-60
2023/03/19 11:27:46;;;;;;;8.90;3.80;;;;;;;;;;5083409;28;20032;-59
2023/03/19 11:30:16;;;;;;;8.57;4.35;;;;;;;;;;5090537;28;20515;-60
2023/03/19 11:32:42;;;;;;;9.10;3.83;;;;;;;;;;5092099;28;20432;-60
2023/03/19 11:35:24;;;;;;;5.90;3.28;;;;;;;;;;5091961;28;20105;-60
2023/03/19 11:37:50;;;;;;;9.05;3.53;;;;;;;;;;5092008;28;20028;-60
2023/03/19 11:40:26;;;;;;;6.78;3.35;;;;;;;;;;5092013;28;20070;-60
2023/03/19 11:43:11;;;;;;;6.85;3.35;;;;;;;;;;5091524;28;20032;-60
2023/03/19 11:45:46;;;;;;;6.20;3.60;;;;;;;;;;5091705;28;20032;-60
2023/03/19 11:48:31;;;;;;;6.67;3.20;;;;;;;;;;5091817;28;20080;-60
2023/03/19 11:51:05;;;;;;;7.37;3.97;;;;;;;;;;5092589;28;20365;-60
2023/03/19 11:53:36;;;;;;;6.45;3.53;;;;;;;;;;5091306;28;20093;-59
2023/03/19 11:56:11;;;;;;;6.35;2.83;;;;;;;;;;5091793;28;20024;-59
2023/03/19 11:58:56;;;;;;;5.60;3.22;;;;;;;;;;5091530;28;20042;-59
2023/03/19 12:01:41;;;;;;;5.90;3.65;;;;;;;;;;5091262;28;20031;-59
2023/03/19 12:04:26;;;;;;;8.52;4.00;;;;;;;;;;5092059;28;20024;-60
2023/03/19 12:06:52;;;;;;;5.82;3.08;;;;;;;;;;5111638;28;20146;-60
2023/03/19 12:09:35;;;;;;;5.95;2.80;;;;;;;;;;5098719;28;20738;-59
2023/03/19 12:12:10;;;;;;;5.07;3.03;;;;;;;;;;5086908;28;20361;-59
2023/03/19 12:14:50;;;;;;;5.20;3.13;;;;;;;;;;5089368;28;20105;-60
2023/03/19 12:17:36;;;;;;;4.97;2.90;;;;;;;;;;5089585;28;20485;-60
2023/03/19 12:20:29;;;;;;;13.93;3.13;;;;;;;;;;5087742;28;20149;-59
2023/03/19 12:22:54;;;;;;;6.53;2.95;;;;;;;;;;5089630;28;20051;-59
2023/03/19 12:25:24;;;;;;;5.47;3.58;;;;;;;;;;5090971;28;20024;-60
2023/03/19 12:27:55;;;;;;;5.47;3.08;;;;;;;;;;5091860;28;20055;-59
2023/03/19 12:30:36;;;;;;;5.40;3.17;;;;;;;;;;5090887;28;20024;-60
2023/03/19 12:33:06;;;;;;;4.95;2.90;;;;;;;;;;5091120;28;20035;-59
2023/03/19 12:35:36;;;;;;;5.78;3.28;;;;;;;;;;5090908;28;20056;-60
2023/03/19 12:38:06;;;;;;;6.22;3.22;;;;;;;;;;5070801;28;20035;-59
2023/03/19 12:40:36;;;;;;;4.85;2.88;;;;;;;;;;5070540;28;20020;-60
2023/03/19 12:43:06;;;;;;;5.80;3.22;;;;;;;;;;5070996;28;20123;-59
2023/03/19 12:45:35;;;;;;;6.35;3.28;;;;;;;;;;5070769;28;20112;-59
2023/03/19 12:48:11;;;;;;;7.13;2.88;;;;;;;;;;5070773;28;20021;-60
2023/03/19 12:50:39;;;;;;;6.50;2.70;;;;;;;;;;5070028;28;20554;-59
2023/03/19 12:53:07;;;;;;;4.80;2.65;;;;;;;;;;5070666;28;20392;-60
2023/03/19 12:55:37;;;;;;;4.90;2.42;;;;;;;;;;5070289;28;20461;-60
2023/03/19 12:58:08;;;;;;;3.80;2.67;;;;;;;;;;5076057;28;20028;-61
2023/03/19 13:00:46;;;;;;;8.10;3.13;;;;;;;;;;5113856;28;20080;-60
2023/03/19 13:03:18;;;;;;;4.68;3.05;;;;;;;;;;5115349;28;20023;-60
2023/03/19 13:05:44;;;;;;;4.93;2.80;;;;;;;;;;5115026;28;20460;-59
2023/03/19 13:08:29;;;;;;;5.40;2.40;;;;;;;;;;5106470;28;20028;-60
2023/03/19 13:10:55;;;;;;;5.03;2.42;;;;;;;;;;5095028;28;20032;-60
2023/03/19 13:13:27;;;;;;;5.43;3.00;;;;;;;;;;5110517;28;20471;-59
2023/03/19 13:15:57;;;;;;;5.03;2.60;;;;;;;;;;5115409;28;20054;-60
2023/03/19 13:18:42;;;;;;;5.00;2.92;;;;;;;;;;5115388;28;20023;-60
2023/03/19 13:21:22;;;;;;;6.25;2.53;;;;;;;;;;5106698;28;20027;-60
2023/03/19 13:23:49;;;;;;;3.42;2.78;;;;;;;;;;5094134;28;20474;-60
2023/03/19 13:26:17;;;;;;;4.70;2.53;;;;;;;;;;5094390;28;20484;-60
2023/03/19 13:28:54;;;;;;;4.03;2.40;;;;;;;;;;5092524;28;20077;-60
2023/03/19 13:31:21;;;;;;;4.00;2.30;;;;;;;;;;5094396;28;20035;-60
2023/03/19 13:34:10;;;;;;;4.22;2.20;;;;;;;;;;5093913;28;20082;-60
2023/03/19 13:36:40;;;;;;;4.65;2.60;;;;;;;;;;5091053;28;20040;-60
2023/03/19 13:39:15;;;;;;;6.03;2.35;;;;;;;;;;5094406;28;20044;-60
2023/03/19 13:41:41;;;;;;;6.00;3.00;;;;;;;;;;5093948;28;20396;-60
2023/03/19 13:44:26;;;;;;;4.15;2.42;;;;;;;;;;5094318;28;20020;-60
2023/03/19 13:46:52;;;;;;;6.18;2.47;;;;;;;;;;5101608;28;20034;-60
2023/03/19 13:49:28;;;;;;;3.45;2.40;;;;;;;;;;5094110;28;20032;-60
2023/03/19 13:51:56;;;;;;;7.53;3.10;;;;;;;;;;5094075;28;20039;-60
2023/03/19 13:54:31;;;;;;;10.15;2.30;;;;;;;;;;5092209;28;20124;-60
2023/03/19 13:56:59;;;;;;;7.95;2.38;;;;;;;;;;5114590;28;20024;-59
2023/03/19 13:59:27;;;;;;;4.88;2.85;;;;;;;;;;5114605;28;20027;-60
2023/03/19 14:01:54;;;;;;;6.22;2.40;;;;;;;;;;5114419;28;20098;-60
2023/03/19 14:04:26;;;;;;;7.65;2.60;;;;;;;;;;5114091;28;20078;-59
2023/03/19 14:06:55;;;;;;;6.20;2.50;;;;;;;;;;5113575;28;20020;-60
2023/03/19 14:09:40;;;;;;;3.95;2.58;;;;;;;;;;5112438;28;20028;-60
2023/03/19 14:12:10;;;;;;;7.70;2.93;;;;;;;;;;5114148;28;20483;-60
2023/03/19 14:14:40;;;;;;;4.05;2.92;;;;;;;;;;5113571;28;20480;-60
2023/03/19 14:17:13;;;;;;;4.65;2.97;;;;;;;;;;5114090;28;20517;-60
2023/03/19 14:19:42;;;;;;;6.75;3.00;;;;;;;;;;5113779;28;20055;-60
2023/03/19 14:22:10;;;;;;;8.48;3.58;;;;;;;;;;5113831;28;20047;-60
2023/03/19 14:24:40;;;;;;;7.15;3.08;;;;;;;;;;5113147;28;20034;-60
2023/03/19 14:27:15;;;;;;;6.75;3.28;;;;;;;;;;5113770;28;20115;-59
2023/03/19 14:29:42;;;;;;;8.25;3.40;;;;;;;;;;5113574;28;20089;-60
2023/03/19 14:32:13;;;;;;;4.90;3.17;;;;;;;;;;5110777;28;20031;-60
2023/03/19 14:34:40;;;;;;;5.80;3.65;;;;;;;;;;5093139;28;20065;-60
2023/03/19 14:37:15;;;;;;;5.72;3.45;;;;;;;;;;5093230;28;20032;-59
2023/03/19 14:39:43;;;;;;;4.47;3.33;;;;;;;;;;5092981;28;20496;-60
2023/03/19 14:42:27;;;;;;;7.63;3.45;;;;;;;;;;5092889;28;20024;-60
2023/03/19 14:45:13;;;;;;;7.13;3.50;;;;;;;;;;5092938;28;20028;-60
2023/03/19 14:47:48;;;;;;;6.00;3.05;;;;;;;;;;5081205;28;20043;-60
2023/03/19 14:50:34;;;;;;;8.68;3.65;;;;;;;;;;5092278;28;20056;-60